Time;durP1;ratioP1;P1;durP2;ratioP2;P2;SDS_P1;SDS_P2;PMS_P1;PMS_P2;Temp;Humidity;BMP_temperature;BMP_pressure;BME280_temperature;BME280_humidity;BME280_pressure;Samples;Min_cycle;Max_cycle;Signal;HPM_P1;HPM_P2
2023/06/01 00:00:58;;;;;;;0.20;0.10;;;;;;;12.76;55.06;101481.47;4967996;28;20046;-74
2023/06/01 00:03:26;;;;;;;2.58;0.10;;;;;;;12.75;55.00;101475.34;4970174;28;20047;-74
2023/06/01 00:05:53;;;;;;;0.22;0.10;;;;;;;12.71;54.94;101476.28;4965962;28;20562;-74
2023/06/01 00:08:20;;;;;;;0.10;0.10;;;;;;;12.72;55.13;101471.91;4969546;28;20062;-74
2023/06/01 00:10:48;;;;;;;0.93;0.10;;;;;;;12.70;54.89;101482.41;4962999;28;20566;-74
2023/06/01 00:13:15;;;;;;;0.10;0.10;;;;;;;12.70;54.87;101481.56;4967082;28;20042;-74
2023/06/01 00:15:43;;;;;;;2.05;0.10;;;;;;;12.70;55.42;101484.19;4964354;28;20051;-73
2023/06/01 00:18:12;;;;;;;0.35;0.03;;;;;;;12.66;55.45;101490.34;4969167;28;20047;-74
2023/06/01 00:20:39;;;;;;;0.73;0.10;;;;;;;12.67;55.42;101492.97;4965573;28;20491;-74
2023/06/01 00:23:08;;;;;;;0.10;0.00;;;;;;;12.65;55.74;101483.38;4964979;28;20110;-74
2023/06/01 00:25:35;;;;;;;0.63;0.10;;;;;;;12.65;55.43;101488.63;4962212;28;20079;-74
2023/06/01 00:28:04;;;;;;;2.20;0.00;;;;;;;12.64;55.79;101489.53;4963573;28;20055;-72
2023/06/01 00:30:31;;;;;;;0.50;0.10;;;;;;;12.62;55.64;101484.28;4964205;28;20134;-73
2023/06/01 00:32:58;;;;;;;1.33;0.10;;;;;;;12.60;55.61;101492.16;4964635;28;20047;-73
2023/06/01 00:35:24;;;;;;;1.20;0.10;;;;;;;12.60;55.70;101499.16;4964037;28;20043;-74
2023/06/01 00:37:51;;;;;;;0.20;0.10;;;;;;;12.56;56.10;101490.50;4964748;28;20384;-73
2023/06/01 00:40:18;;;;;;;3.40;0.10;;;;;;;12.57;56.02;101486.13;4963167;28;20054;-73
2023/06/01 00:43:15;;;;;;;2.13;0.10;;;;;;;12.57;56.06;101484.34;4963363;28;20046;-73
2023/06/01 00:45:42;;;;;;;0.95;0.65;;;;;;;12.53;55.98;101492.31;4962451;28;20043;-73
2023/06/01 00:48:09;;;;;;;1.80;0.10;;;;;;;12.55;56.09;101493.13;4961799;28;20066;-73
2023/06/01 00:50:37;;;;;;;1.88;0.10;;;;;;;12.54;55.96;101486.16;4963157;28;20051;-73
2023/06/01 00:53:06;;;;;;;0.82;0.10;;;;;;;12.48;56.14;101481.88;4964904;28;20050;-73
2023/06/01 00:55:35;;;;;;;0.22;0.13;;;;;;;12.52;56.48;101490.56;4964094;28;20122;-72
2023/06/01 00:58:03;;;;;;;0.38;0.10;;;;;;;12.50;56.42;101497.59;4965556;28;20126;-73
2023/06/01 01:00:32;;;;;;;0.15;0.13;;;;;;;12.49;56.70;101498.47;4965118;28;20724;-73
2023/06/01 01:03:00;;;;;;;0.20;0.10;;;;;;;12.51;56.24;101501.94;4961539;28;20126;-73
2023/06/01 01:05:27;;;;;;;1.00;0.15;;;;;;;12.45;56.18;101488.94;4958298;28;20043;-73
2023/06/01 01:08:02;;;;;;;2.50;0.10;;;;;;;12.47;56.50;101495.03;4962998;28;20058;-73
2023/06/01 01:10:33;;;;;;;0.22;0.10;;;;;;;12.46;56.48;101506.38;4966517;28;20055;-73
2023/06/01 01:13:07;;;;;;;1.10;0.10;;;;;;;12.45;56.37;101489.78;4957613;28;20417;-74
2023/06/01 01:15:45;;;;;;;0.82;0.10;;;;;;;12.44;56.43;101500.31;4965285;28;20058;-74
2023/06/01 01:18:17;;;;;;;0.10;0.00;;;;;;;12.42;56.37;101507.31;4967270;28;20564;-73
2023/06/01 01:20:50;;;;;;;1.42;0.20;;;;;;;12.41;56.22;101497.69;4960931;28;20055;-73
2023/06/01 01:23:35;;;;;;;0.30;0.10;;;;;;;12.35;56.36;101496.03;4961123;28;20039;-73
2023/06/01 01:26:13;;;;;;;1.67;0.10;;;;;;;12.35;56.22;101504.78;4963769;28;20701;-74
2023/06/01 01:28:44;;;;;;;0.05;0.00;;;;;;;12.33;56.37;101498.69;4959151;28;20449;-74
2023/06/01 01:31:14;;;;;;;1.55;0.10;;;;;;;12.34;56.47;101502.19;4966794;28;20138;-74
2023/06/01 01:33:43;;;;;;;1.40;0.10;;;;;;;12.31;55.66;101487.38;4960961;28;20492;-74
2023/06/01 01:36:11;;;;;;;0.52;0.10;;;;;;;12.26;55.74;101481.31;4967179;28;20049;-74
2023/06/01 01:38:38;;;;;;;0.70;0.10;;;;;;;12.30;55.80;101493.50;4964918;28;20043;-73
2023/06/01 01:41:05;;;;;;;0.20;0.10;;;;;;;12.28;56.14;101494.41;4964679;28;20438;-73
2023/06/01 01:43:33;;;;;;;2.05;0.10;;;;;;;12.30;55.84;101498.75;4965308;28;20053;-74
2023/06/01 01:46:12;;;;;;;0.10;0.10;;;;;;;12.28;55.87;101490.03;4962803;28;20046;-74
2023/06/01 01:48:43;;;;;;;0.30;0.20;;;;;;;12.26;56.06;101490.94;4962250;28;20055;-74
2023/06/01 01:51:16;;;;;;;0.50;0.10;;;;;;;12.27;55.85;101496.16;4961457;28;20507;-73
2023/06/01 01:53:46;;;;;;;2.00;0.10;;;;;;;12.24;55.91;101493.59;4962298;28;20042;-73
2023/06/01 01:56:14;;;;;;;1.73;0.10;;;;;;;12.25;55.90;101491.84;4960654;28;20748;-74
2023/06/01 01:58:42;;;;;;;0.95;0.10;;;;;;;12.25;56.15;101503.16;4961210;28;20491;-74
2023/06/01 02:01:12;;;;;;;0.60;0.10;;;;;;;12.22;56.06;101499.75;4966748;28;20060;-74
2023/06/01 02:03:38;;;;;;;0.73;0.10;;;;;;;12.23;56.15;101507.56;4963501;28;20051;-73
2023/06/01 02:06:08;;;;;;;4.03;0.10;;;;;;;12.21;56.41;101511.97;4958758;28;20050;-75
2023/06/01 02:08:35;;;;;;;0.82;0.10;;;;;;;12.21;56.15;101519.84;4967013;28;20054;-74
2023/06/01 02:11:02;;;;;;;3.08;0.10;;;;;;;12.20;55.89;101533.78;4963463;28;20057;-74
2023/06/01 02:13:29;;;;;;;2.28;0.10;;;;;;;12.18;55.30;101535.59;4961996;28;20065;-73
2023/06/01 02:15:59;;;;;;;2.22;0.08;;;;;;;12.17;55.49;101538.22;4966141;28;20934;-73
2023/06/01 02:18:29;;;;;;;0.15;0.08;;;;;;;12.18;54.57;101551.31;4961012;28;20066;-72
2023/06/01 02:20:57;;;;;;;0.20;0.10;;;;;;;12.17;53.99;101552.16;4964449;28;20051;-72
2023/06/01 02:23:24;;;;;;;0.52;0.10;;;;;;;12.13;53.75;101542.63;4964351;28;20050;-72
2023/06/01 02:25:51;;;;;;;2.75;0.55;;;;;;;12.11;53.29;101547.00;4961892;28;20054;-71
2023/06/01 02:28:18;;;;;;;0.03;0.00;;;;;;;12.10;52.93;101547.91;4964721;28;20102;-72
2023/06/01 02:30:45;;;;;;;0.10;0.00;;;;;;;12.07;52.35;101553.19;4966279;28;20046;-72
2023/06/01 02:33:12;;;;;;;2.15;0.03;;;;;;;12.04;52.13;101554.09;4968567;28;20050;-72
2023/06/01 02:35:41;;;;;;;1.58;0.47;;;;;;;11.99;51.22;101560.25;4964828;28;20530;-73
2023/06/01 02:38:08;;;;;;;0.60;0.00;;;;;;;11.96;51.36;101550.69;4969111;28;20051;-73
2023/06/01 02:40:35;;;;;;;6.20;0.10;;;;;;;11.99;51.36;101565.50;4967262;28;20059;-73
2023/06/01 02:43:02;;;;;;;1.00;0.10;;;;;;;11.91;51.28;101558.59;4966469;28;20065;-73
2023/06/01 02:45:29;;;;;;;0.98;0.00;;;;;;;11.99;51.74;101565.50;4963536;28;20043;-73
2023/06/01 02:47:56;;;;;;;3.10;0.10;;;;;;;11.98;51.35;101572.50;4964474;28;20057;-73
2023/06/01 02:50:23;;;;;;;0.10;0.10;;;;;;;12.00;51.42;101564.59;4966673;28;20055;-72
2023/06/01 02:52:51;;;;;;;0.35;0.10;;;;;;;11.93;50.23;101556.81;4966919;28;20047;-72
2023/06/01 02:55:18;;;;;;;0.32;0.00;;;;;;;11.92;49.50;101572.53;4968090;28;20043;-71
2023/06/01 02:57:45;;;;;;;0.10;0.00;;;;;;;11.86;49.07;101573.47;4965685;28;20043;-72
2023/06/01 03:00:17;;;;;;;1.27;0.10;;;;;;;11.83;48.79;101581.31;4966189;28;20098;-72
2023/06/01 03:02:44;;;;;;;0.10;0.10;;;;;;;11.79;49.06;101569.16;4963465;28;20086;-72
2023/06/01 03:05:14;;;;;;;0.55;0.05;;;;;;;11.78;48.90;101582.25;4969815;28;20051;-73
2023/06/01 03:07:41;;;;;;;0.20;0.00;;;;;;;11.76;47.74;101566.59;4961784;28;20282;-73
2023/06/01 03:10:10;;;;;;;1.70;0.10;;;;;;;11.74;47.54;101568.34;4969063;28;20055;-72
2023/06/01 03:12:37;;;;;;;1.10;0.08;;;;;;;11.73;47.30;101574.47;4968481;28;20426;-72
2023/06/01 03:15:06;;;;;;;2.47;0.00;;;;;;;11.69;46.58;101573.63;4966345;28;20054;-72
2023/06/01 03:17:33;;;;;;;1.55;0.00;;;;;;;11.66;46.68;101568.41;4962046;28;20130;-72
2023/06/01 03:20:00;;;;;;;0.10;0.00;;;;;;;11.65;46.63;101584.16;4964597;28;20052;-73
2023/06/01 03:22:27;;;;;;;2.25;0.10;;;;;;;11.63;46.78;101573.69;4970653;28;20058;-72
2023/06/01 03:24:54;;;;;;;1.80;0.10;;;;;;;11.62;45.97;101579.81;4966769;28;20057;-72
2023/06/01 03:27:22;;;;;;;0.00;0.00;;;;;;;11.61;46.39;101580.72;4967256;28;20047;-72
2023/06/01 03:29:49;;;;;;;0.65;0.00;;;;;;;11.62;46.02;101576.34;4965777;28;20057;-72
2023/06/01 03:32:16;;;;;;;2.15;0.22;;;;;;;11.62;45.88;101576.34;4967224;28;20057;-72
2023/06/01 03:34:43;;;;;;;0.00;0.00;;;;;;;11.48;46.16;101573.84;4965892;28;20050;-73
2023/06/01 03:37:10;;;;;;;0.15;0.00;;;;;;;11.61;45.84;101590.28;4966400;28;20098;-72
2023/06/01 03:39:39;;;;;;;0.77;0.00;;;;;;;11.59;45.83;101586.84;4964828;28;20051;-72
2023/06/01 03:42:06;;;;;;;1.65;0.00;;;;;;;11.59;46.11;101581.59;4967801;28;20054;-72
2023/06/01 03:44:35;;;;;;;2.92;0.00;;;;;;;11.61;45.56;101600.75;4964040;28;20049;-72
2023/06/01 03:47:02;;;;;;;1.27;0.10;;;;;;;11.55;44.63;101585.13;4960534;28;20047;-72
2023/06/01 03:49:29;;;;;;;2.78;0.10;;;;;;;11.60;45.25;101593.78;4968808;28;20064;-71
2023/06/01 03:51:56;;;;;;;0.70;0.00;;;;;;;11.59;45.20;101598.16;4964220;28;20391;-72
2023/06/01 03:54:23;;;;;;;0.65;0.10;;;;;;;11.60;44.94;101586.81;4965711;28;20495;-72
2023/06/01 03:56:50;;;;;;;2.55;0.13;;;;;;;11.62;44.64;101587.66;4965215;28;20167;-71
2023/06/01 03:59:17;;;;;;;2.20;0.10;;;;;;;11.62;44.37;101598.13;4969270;28;20050;-72
2023/06/01 04:01:48;;;;;;;2.67;0.10;;;;;;;11.63;44.77;101596.38;4962953;28;20054;-72
2023/06/01 04:04:16;;;;;;;0.20;0.10;;;;;;;11.63;44.90;101599.00;4965880;28;20075;-72
2023/06/01 04:06:45;;;;;;;0.50;0.05;;;;;;;11.66;45.01;101593.72;4967349;28;20231;-71
2023/06/01 04:09:12;;;;;;;0.10;0.00;;;;;;;11.65;44.03;101592.88;4967161;28;20507;-72
2023/06/01 04:11:40;;;;;;;1.55;0.10;;;;;;;11.67;44.38;101596.34;4963761;28;20785;-72
2023/06/01 04:14:07;;;;;;;1.13;0.10;;;;;;;11.69;44.01;101598.94;4963435;28;20091;-72
2023/06/01 04:16:34;;;;;;;1.95;0.10;;;;;;;11.70;43.44;101598.06;4962617;28;20061;-72
2023/06/01 04:19:03;;;;;;;0.60;0.10;;;;;;;11.69;43.40;101585.84;4963311;28;20142;-72
2023/06/01 04:21:30;;;;;;;0.65;0.00;;;;;;;11.71;43.45;101592.81;4966566;28;20051;-72
2023/06/01 04:23:57;;;;;;;0.22;0.03;;;;;;;11.73;44.08;101594.56;4962021;28;20057;-70
2023/06/01 04:26:25;;;;;;;1.38;0.10;;;;;;;11.76;44.02;101590.16;4966122;28;20039;-71
2023/06/01 04:28:56;;;;;;;1.65;0.32;;;;;;;11.79;43.69;101597.97;4964326;28;20059;-71
2023/06/01 04:31:23;;;;;;;0.10;0.10;;;;;;;11.82;43.31;101595.31;4968531;28;20050;-72
2023/06/01 04:33:52;;;;;;;1.15;0.08;;;;;;;11.86;42.67;101598.78;4964996;28;20043;-71
2023/06/01 04:36:22;;;;;;;0.28;0.00;;;;;;;11.82;42.91;101584.84;4956738;28;20519;-71
2023/06/01 04:38:51;;;;;;;2.22;0.10;;;;;;;11.80;43.29;101573.50;4962800;28;20493;-71
2023/06/01 04:41:20;;;;;;;0.47;0.00;;;;;;;11.98;43.21;101600.41;4965568;28;20133;-71
2023/06/01 04:43:51;;;;;;;1.08;0.10;;;;;;;12.01;42.37;101584.66;4962857;28;20053;-71
2023/06/01 04:46:24;;;;;;;0.80;0.10;;;;;;;12.04;42.51;101589.84;4965919;28;20476;-71
2023/06/01 04:48:52;;;;;;;1.23;0.10;;;;;;;12.11;42.04;101583.69;4963337;28;20086;-71
2023/06/01 04:51:21;;;;;;;0.32;0.00;;;;;;;12.14;42.35;101574.03;4963582;28;20616;-72
2023/06/01 04:53:51;;;;;;;0.95;0.00;;;;;;;12.20;41.94;101586.19;4968139;28;20050;-71
2023/06/01 04:56:20;;;;;;;0.80;0.00;;;;;;;12.20;41.56;101575.69;4962482;28;20533;-72
2023/06/01 04:58:48;;;;;;;0.82;0.10;;;;;;;12.26;41.68;101583.47;4965286;28;20050;-71
2023/06/01 05:01:16;;;;;;;3.15;0.10;;;;;;;12.31;42.20;101581.69;4963063;28;20047;-71
2023/06/01 05:03:44;;;;;;;0.85;0.10;;;;;;;12.30;41.89;101582.56;4966181;28;20142;-73
2023/06/01 05:06:11;;;;;;;1.08;0.30;;;;;;;12.40;41.64;101592.94;4962027;28;20522;-71
2023/06/01 05:08:40;;;;;;;0.82;0.38;;;;;;;12.42;41.85;101592.03;4967070;28;20687;-72
2023/06/01 05:11:08;;;;;;;0.15;0.08;;;;;;;12.44;41.95;101585.03;4964752;28;20141;-71
2023/06/01 05:13:36;;;;;;;2.20;0.08;;;;;;;12.47;42.05;101587.59;4963763;28;20058;-73
2023/06/01 05:16:04;;;;;;;0.90;0.10;;;;;;;12.49;41.68;101596.28;4962927;28;20065;-72
2023/06/01 05:18:31;;;;;;;2.17;0.10;;;;;;;12.52;41.82;101595.38;4964368;28;20047;-73
2023/06/01 05:20:59;;;;;;;1.63;0.10;;;;;;;12.55;41.87;101601.47;4960110;28;20043;-73
2023/06/01 05:23:27;;;;;;;1.55;0.10;;;;;;;12.55;41.89;101588.38;4967277;28;20045;-73
2023/06/01 05:26:01;;;;;;;0.52;0.10;;;;;;;12.59;41.93;101594.44;4959548;28;20521;-73
2023/06/01 05:28:28;;;;;;;2.57;0.30;;;;;;;12.59;42.32;101600.53;4967168;28;20051;-70
2023/06/01 05:30:55;;;;;;;0.20;0.10;;;;;;;12.64;42.08;101594.38;4967782;28;20443;-71
2023/06/01 05:33:22;;;;;;;0.50;0.28;;;;;;;12.66;41.98;101611.78;4963843;28;20277;-71
2023/06/01 05:35:49;;;;;;;1.17;0.73;;;;;;;12.67;41.94;101592.56;4967112;28;20054;-71
2023/06/01 05:38:16;;;;;;;0.30;0.00;;;;;;;12.69;42.04;101606.50;4965627;28;20043;-71
2023/06/01 05:40:43;;;;;;;0.43;0.05;;;;;;;12.71;41.29;101611.72;4964615;28;20483;-73
2023/06/01 05:43:12;;;;;;;3.42;0.10;;;;;;;12.72;41.41;101611.72;4961620;28;20480;-72
2023/06/01 05:45:39;;;;;;;1.60;0.00;;;;;;;12.72;41.58;101608.22;4963785;28;20057;-75
2023/06/01 05:48:06;;;;;;;1.00;0.10;;;;;;;12.72;40.92;101609.09;4966318;28;20039;-72
2023/06/01 05:50:33;;;;;;;0.40;0.10;;;;;;;12.73;40.81;101616.06;4964819;28;20062;-72
2023/06/01 05:53:00;;;;;;;1.60;0.13;;;;;;;12.75;40.50;101616.94;4966387;28;20074;-72
2023/06/01 05:55:27;;;;;;;0.93;0.10;;;;;;;12.75;39.73;101619.53;4964863;28;20074;-71
2023/06/01 05:57:54;;;;;;;2.05;0.10;;;;;;;12.72;40.00;101611.72;4964400;28;20051;-71
2023/06/01 06:00:22;;;;;;;5.47;0.10;;;;;;;12.73;39.92;101613.44;4960646;28;20500;-71
2023/06/01 06:02:49;;;;;;;1.58;0.10;;;;;;;12.75;39.37;101618.66;4963676;28;20057;-71
2023/06/01 06:05:16;;;;;;;4.65;0.25;;;;;;;12.72;39.23;101611.72;4962339;28;20113;-70
2023/06/01 06:07:43;;;;;;;2.65;0.10;;;;;;;12.74;39.21;101625.66;4961580;28;20057;-71
2023/06/01 06:10:12;;;;;;;3.85;0.10;;;;;;;12.75;39.00;101624.78;4963414;28;20053;-72
2023/06/01 06:12:39;;;;;;;2.83;0.38;;;;;;;12.73;38.91;101621.31;4964926;28;20053;-71
2023/06/01 06:15:07;;;;;;;0.73;0.10;;;;;;;12.71;38.40;101616.97;4964274;28;20053;-74
2023/06/01 06:17:36;;;;;;;0.30;0.10;;;;;;;12.70;38.24;101623.97;4962973;28;20063;-74
2023/06/01 06:20:06;;;;;;;3.22;0.03;;;;;;;12.70;38.40;101618.72;4965828;28;20138;-74
2023/06/01 06:22:34;;;;;;;4.78;0.20;;;;;;;12.68;38.28;101619.63;4966591;28;20145;-73
2023/06/01 06:25:01;;;;;;;0.88;0.10;;;;;;;12.65;38.77;101610.06;4963101;28;20051;-75
2023/06/01 06:27:28;;;;;;;9.02;0.17;;;;;;;12.70;38.39;101617.88;4963923;28;20050;-73
2023/06/01 06:29:55;;;;;;;2.78;0.20;;;;;;;12.70;38.33;101608.25;4967630;28;20074;-75
2023/06/01 06:32:22;;;;;;;3.95;0.20;;;;;;;12.73;38.86;101612.59;4965568;28;20057;-74
2023/06/01 06:34:50;;;;;;;2.28;0.10;;;;;;;12.73;39.04;101629.19;4964412;28;20085;-72
2023/06/01 06:37:17;;;;;;;0.90;0.10;;;;;;;12.72;37.99;101616.06;4962579;28;20161;-76
2023/06/01 06:39:45;;;;;;;2.25;0.10;;;;;;;12.76;38.05;101623.03;4965479;28;20038;-72
2023/06/01 06:42:12;;;;;;;6.40;0.10;;;;;;;12.77;38.03;101619.50;4960611;28;20491;-73
2023/06/01 06:44:39;;;;;;;4.03;0.17;;;;;;;12.79;38.08;101638.72;4963775;28;20043;-74
2023/06/01 06:47:06;;;;;;;2.05;0.10;;;;;;;12.78;37.50;101632.59;4963570;28;20517;-71
2023/06/01 06:49:33;;;;;;;0.43;0.13;;;;;;;12.78;37.55;101639.63;4959901;28;20414;-74
2023/06/01 06:52:02;;;;;;;2.90;0.63;;;;;;;12.81;36.67;101636.94;4958810;28;20053;-73
2023/06/01 06:54:28;;;;;;;0.20;0.10;;;;;;;12.86;36.95;101640.34;4961893;28;20050;-73
2023/06/01 06:56:55;;;;;;;1.15;0.10;;;;;;;12.88;36.89;101637.72;4964601;28;20497;-72
2023/06/01 06:59:23;;;;;;;0.88;0.10;;;;;;;12.91;37.41;101641.16;4961567;28;20045;-73
2023/06/01 07:01:50;;;;;;;2.65;0.10;;;;;;;12.93;37.25;101630.66;4963770;28;20059;-73
2023/06/01 07:04:17;;;;;;;1.02;0.08;;;;;;;13.01;37.33;101624.41;4961028;28;20085;-74
2023/06/01 07:06:44;;;;;;;0.75;0.10;;;;;;;13.08;37.42;101635.66;5142339;23;20048;-74
2023/06/01 07:09:13;;;;;;;0.60;0.17;;;;;;;13.06;37.60;101616.44;4980422;28;20133;-77
2023/06/01 07:11:42;;;;;;;3.90;0.32;;;;;;;13.14;37.39;101622.44;4972280;28;20174;-77
2023/06/01 07:14:09;;;;;;;1.05;0.10;;;;;;;13.31;36.80;101631.84;4982069;28;20047;-72
2023/06/01 07:16:36;;;;;;;1.65;0.10;;;;;;;13.15;36.14;101595.34;4983935;28;20054;-74
2023/06/01 07:19:03;;;;;;;6.50;0.10;;;;;;;13.46;35.77;101635.09;4983852;28;20136;-74
2023/06/01 07:21:30;;;;;;;1.05;0.10;;;;;;;13.52;35.91;101636.75;4987530;28;20065;-74
2023/06/01 07:23:57;;;;;;;1.77;0.20;;;;;;;13.59;35.68;101635.75;4985340;28;20054;-74
2023/06/01 07:26:26;;;;;;;2.70;0.10;;;;;;;13.67;35.98;101641.72;4986591;28;20042;-71
2023/06/01 07:28:54;;;;;;;1.60;0.10;;;;;;;13.75;35.65;101640.75;4988935;28;20133;-71
2023/06/01 07:31:22;;;;;;;0.60;0.10;;;;;;;13.79;35.43;101639.78;4987463;28;20047;-71
2023/06/01 07:33:48;;;;;;;1.00;0.10;;;;;;;13.85;35.71;101640.53;4981855;28;20748;-71
2023/06/01 07:36:18;;;;;;;1.08;0.10;;;;;;;13.93;35.71;101636.00;4986081;28;20054;-72
2023/06/01 07:38:45;;;;;;;3.60;0.20;;;;;;;14.02;35.73;101636.72;4985733;28;20050;-75
2023/06/01 07:41:12;;;;;;;4.10;0.13;;;;;;;14.13;35.45;101629.50;4981395;28;20049;-74
2023/06/01 07:43:41;;;;;;;3.00;0.10;;;;;;;14.21;35.07;101634.63;4983446;28;20066;-74
2023/06/01 07:46:08;;;;;;;1.08;0.20;;;;;;;14.28;34.95;101644.09;4988622;28;20129;-73
2023/06/01 07:48:38;;;;;;;0.50;0.20;;;;;;;14.23;35.33;101622.31;4984328;28;20043;-72
2023/06/01 07:51:07;;;;;;;2.58;0.35;;;;;;;14.42;34.74;101631.53;4987762;28;20383;-72
2023/06/01 07:53:34;;;;;;;2.00;0.43;;;;;;;14.45;33.18;101636.75;4983973;28;20042;-74
2023/06/01 07:56:01;;;;;;;1.00;0.35;;;;;;;14.49;32.11;101648.94;4985664;28;20050;-71
2023/06/01 07:58:28;;;;;;;0.77;0.10;;;;;;;14.40;32.50;101641.25;4981688;28;20046;-72
2023/06/01 08:00:56;;;;;;;1.00;0.10;;;;;;;14.51;32.56;101641.00;4989092;28;20050;-71
2023/06/01 08:03:25;;;;;;;5.18;0.20;;;;;;;14.56;32.76;101649.69;4982679;28;20048;-71
2023/06/01 08:05:54;;;;;;;0.40;0.10;;;;;;;14.60;32.93;101641.72;4988378;28;20066;-73
2023/06/01 08:08:24;;;;;;;1.95;0.10;;;;;;;14.67;33.50;101638.97;4984474;28;20160;-74
2023/06/01 08:10:51;;;;;;;0.73;0.30;;;;;;;14.73;33.38;101646.72;4985980;28;20060;-71
2023/06/01 08:13:19;;;;;;;0.40;0.10;;;;;;;14.77;33.20;101640.47;4985306;28;20046;-72
2023/06/01 08:15:47;;;;;;;2.90;0.10;;;;;;;14.79;33.41;101646.56;4988122;28;20568;-74
2023/06/01 08:18:15;;;;;;;2.28;0.77;;;;;;;14.85;33.63;101646.44;4985691;28;20039;-71
2023/06/01 08:20:44;;;;;;;3.15;0.20;;;;;;;14.90;33.71;101644.56;4988003;28;20078;-75
2023/06/01 08:23:11;;;;;;;0.57;0.10;;;;;;;14.93;33.30;101641.88;4986031;28;20050;-73
2023/06/01 08:25:38;;;;;;;0.50;0.30;;;;;;;14.99;33.30;101643.50;4986831;28;20524;-76
2023/06/01 08:28:05;;;;;;;3.50;0.17;;;;;;;15.01;33.19;101647.81;4987594;28;20141;-73
2023/06/01 08:30:32;;;;;;;4.10;0.20;;;;;;;15.05;33.39;101646.88;4984946;28;20050;-76
2023/06/01 08:33:01;;;;;;;0.70;0.10;;;;;;;15.05;33.38;101649.50;4985392;28;20043;-75
2023/06/01 08:35:33;;;;;;;1.13;0.10;;;;;;;15.11;33.27;101652.88;4988000;28;20087;-74
2023/06/01 08:38:00;;;;;;;0.55;0.10;;;;;;;15.10;32.83;101652.00;4986615;28;20046;-74
2023/06/01 08:40:27;;;;;;;1.75;0.20;;;;;;;15.15;33.11;101654.53;4984459;28;20046;-74
2023/06/01 08:43:00;;;;;;;0.55;0.10;;;;;;;15.19;32.56;101650.94;4986174;28;20053;-75
2023/06/01 08:45:27;;;;;;;0.50;0.20;;;;;;;15.25;32.81;101648.13;4986131;28;20042;-75
2023/06/01 08:47:55;;;;;;;0.98;0.20;;;;;;;15.25;32.96;101635.88;4984683;28;20061;-73
2023/06/01 08:50:23;;;;;;;0.68;0.10;;;;;;;15.37;32.69;101662.78;4986467;28;20046;-73
2023/06/01 08:52:55;;;;;;;1.05;0.10;;;;;;;15.38;32.11;101652.22;4985059;28;20050;-74
2023/06/01 08:55:23;;;;;;;3.15;0.20;;;;;;;15.35;32.02;101652.28;4982561;28;20054;-72
2023/06/01 08:57:50;;;;;;;4.22;0.17;;;;;;;15.34;31.65;101644.41;4987666;28;20066;-76
2023/06/01 09:00:19;;;;;;;2.15;0.52;;;;;;;15.42;32.20;101643.31;4985787;28;20054;-76
2023/06/01 09:02:46;;;;;;;1.58;0.10;;;;;;;15.46;32.39;101645.00;4986513;28;20046;-77
2023/06/01 09:05:14;;;;;;;0.77;0.10;;;;;;;15.50;31.91;101651.91;4986802;28;20562;-74
2023/06/01 09:07:41;;;;;;;2.67;0.15;;;;;;;15.53;31.52;101645.69;4986184;28;20501;-71
2023/06/01 09:10:11;;;;;;;3.40;0.10;;;;;;;15.60;31.15;101657.81;4986743;28;20061;-72
2023/06/01 09:12:40;;;;;;;1.00;0.35;;;;;;;15.63;31.67;101656.88;4986365;28;20047;-70
2023/06/01 09:15:09;;;;;;;0.20;0.10;;;;;;;15.63;31.70;101656.88;4985209;28;20046;-70
2023/06/01 09:17:37;;;;;;;1.10;0.10;;;;;;;15.56;31.48;101660.56;4983887;28;20061;-74
2023/06/01 09:20:05;;;;;;;2.17;0.10;;;;;;;15.56;31.38;101648.25;4986800;28;20430;-71
2023/06/01 09:22:43;;;;;;;0.52;0.22;;;;;;;15.57;31.20;101663.16;4984029;28;20054;-72
2023/06/01 09:25:13;;;;;;;0.52;0.20;;;;;;;15.55;30.95;101659.69;4984526;28;20520;-74
2023/06/01 09:27:45;;;;;;;2.67;0.50;;;;;;;15.51;31.00;101661.56;4981346;28;20057;-69
2023/06/01 09:30:13;;;;;;;0.55;0.10;;;;;;;15.53;31.07;101659.72;4986741;28;20058;-71
2023/06/01 09:32:41;;;;;;;1.35;0.10;;;;;;;15.58;31.36;101669.28;4983283;28;20073;-70
2023/06/01 09:35:09;;;;;;;0.38;0.10;;;;;;;15.61;30.75;101664.81;4987047;28;20057;-71
2023/06/01 09:37:38;;;;;;;1.33;0.20;;;;;;;15.63;30.90;101662.16;4982375;28;20062;-70
2023/06/01 09:40:19;;;;;;;1.15;0.20;;;;;;;15.67;30.93;101669.06;4984210;28;20057;-72
2023/06/01 09:42:49;;;;;;;5.15;0.20;;;;;;;15.69;31.16;101667.28;4982183;28;20847;-70
2023/06/01 09:45:19;;;;;;;3.85;0.20;;;;;;;15.68;30.54;101671.69;4981994;28;20692;-70
2023/06/01 09:47:46;;;;;;;1.60;0.22;;;;;;;15.76;31.05;101673.25;4985378;28;20050;-71
2023/06/01 09:50:34;;;;;;;0.50;0.20;;;;;;;15.78;31.31;101682.00;4979358;28;20050;-70
2023/06/01 09:53:01;;;;;;;0.55;0.10;;;;;;;15.76;30.57;101683.78;4987168;28;20066;-70
2023/06/01 09:55:29;;;;;;;0.30;0.10;;;;;;;15.71;30.09;101676.03;4984102;28;20109;-73
2023/06/01 09:58:21;;;;;;;2.95;0.20;;;;;;;15.67;30.31;101680.44;4986005;28;20125;-73
2023/06/01 10:00:49;;;;;;;2.30;0.10;;;;;;;15.61;30.61;101670.06;4984356;28;20058;-74
2023/06/01 10:03:17;;;;;;;1.75;0.10;;;;;;;15.67;30.12;101679.59;4982085;28;20390;-74
2023/06/01 10:05:44;;;;;;;1.48;0.45;;;;;;;15.66;29.88;101677.88;4981878;28;20058;-73
2023/06/01 10:08:13;;;;;;;1.33;0.30;;;;;;;15.62;30.51;101677.06;4980772;28;20054;-74
2023/06/01 10:10:44;;;;;;;0.55;0.25;;;;;;;15.62;30.27;101681.47;4985999;28;20120;-73
2023/06/01 10:13:11;;;;;;;1.92;0.20;;;;;;;15.61;30.45;101667.44;4981991;28;20065;-74
2023/06/01 10:15:39;;;;;;;2.92;0.15;;;;;;;15.65;30.47;101674.38;4984475;28;20054;-74
2023/06/01 10:18:06;;;;;;;1.35;0.20;;;;;;;15.67;30.42;101676.97;4981867;28;20062;-74
2023/06/01 10:20:34;;;;;;;0.85;0.30;;;;;;;15.71;30.59;101678.66;4986789;28;20053;-74
2023/06/01 10:23:02;;;;;;;0.30;0.10;;;;;;;15.74;30.44;101670.69;4981846;28;20050;-74
2023/06/01 10:25:34;;;;;;;1.13;0.20;;;;;;;15.76;30.67;101674.13;4984068;28;20042;-75
2023/06/01 10:28:07;;;;;;;0.90;0.20;;;;;;;15.75;30.79;101661.88;4979233;28;20050;-75
2023/06/01 10:30:34;;;;;;;1.48;0.17;;;;;;;15.80;31.03;101667.88;4984789;28;20133;-75
2023/06/01 10:33:01;;;;;;;2.72;0.20;;;;;;;15.82;30.46;101670.47;4980548;28;20074;-73
2023/06/01 10:36:05;;;;;;;1.73;0.10;;;;;;;15.84;30.01;101687.09;4985655;28;20151;-72
2023/06/01 10:38:31;;;;;;;2.97;0.20;;;;;;;15.81;29.59;101674.88;4984161;28;20122;-70
2023/06/01 10:41:30;;;;;;;5.75;0.13;;;;;;;15.82;30.02;101668.69;4983770;28;20047;-70
2023/06/01 10:43:59;;;;;;;1.95;0.13;;;;;;;15.82;29.69;101681.00;4983802;28;20474;-74
2023/06/01 10:46:37;;;;;;;2.50;0.20;;;;;;;15.83;30.21;101673.06;4987228;28;20050;-72
2023/06/01 10:49:05;;;;;;;1.02;0.10;;;;;;;15.83;29.26;101675.72;4981735;28;20043;-70
2023/06/01 10:51:33;;;;;;;2.35;0.13;;;;;;;15.84;28.89;101682.69;4985119;28;20065;-73
2023/06/01 10:54:29;;;;;;;2.65;0.10;;;;;;;15.85;29.59;101687.09;4985665;28;20740;-71
2023/06/01 10:57:21;;;;;;;3.35;0.10;;;;;;;15.81;29.74;101688.03;4986203;28;20052;-74
2023/06/01 11:00:16;;;;;;;1.95;0.10;;;;;;;15.77;29.09;101681.13;4989081;28;20047;-75
2023/06/01 11:02:52;;;;;;;1.67;0.20;;;;;;;15.62;28.17;101674.44;4985889;28;20486;-75
2023/06/01 11:05:46;;;;;;;3.67;0.20;;;;;;;15.62;28.37;101698.13;4986863;28;20107;-76
2023/06/01 11:08:51;;;;;;;1.30;0.13;;;;;;;15.58;28.29;101693.00;4983525;28;20069;-74
2023/06/01 11:11:20;;;;;;;2.53;0.10;;;;;;;15.56;27.91;101692.16;4987491;28;20050;-73
2023/06/01 11:14:11;;;;;;;1.58;0.13;;;;;;;15.47;28.65;101670.41;4987722;28;20828;-73
2023/06/01 11:16:40;;;;;;;0.38;0.10;;;;;;;15.50;28.64;101672.97;4985430;28;20446;-75
2023/06/01 11:19:09;;;;;;;1.20;0.20;;;;;;;15.56;29.02;101684.25;4991096;28;20398;-73
2023/06/01 11:21:39;;;;;;;0.63;0.10;;;;;;;15.58;28.02;101695.63;4985581;28;20086;-72
2023/06/01 11:24:11;;;;;;;3.78;0.22;;;;;;;15.57;28.36;101696.50;4987349;28;20168;-72
2023/06/01 11:26:42;;;;;;;1.65;0.10;;;;;;;15.51;28.54;101695.78;4984053;28;20050;-74
2023/06/01 11:29:15;;;;;;;2.28;0.10;;;;;;;15.55;28.61;101693.06;4989653;28;20080;-74
2023/06/01 11:31:46;;;;;;;3.10;0.10;;;;;;;15.53;28.99;101672.03;4986466;28;20820;-74
2023/06/01 11:34:15;;;;;;;2.28;0.50;;;;;;;15.53;28.66;101696.59;4984994;28;20490;-76